Ceara-Mirim, Brazil
Current Conditions -  °F | °C
As of 12:00 PM on Sunday 21 Dec 2014 (Local Time) from SBNT Reporting Station
Broken Clouds Broken Clouds  
Wind Chill: 86°   Ceiling: 2700
Heat Index: 90°   Visibility: 6mi
Dew Point: 70°   Wind: 18mph
Humidity: 58%   Direction: 110°ESE
Pressure: 29.94"   Gusts: NA
Location:  5.63°S, 35.43°W
Report Text: SBNT 211500Z 11016KT 9999 BKN027 30/21 Q1014
Loading
Personal Weather Stations






























Interactive Weather Map New forecast layout! Learn more

10-Day Weather Forecast

Advertisements
Track Severe Weather on mobile